Glen Spey, NY (12737)

7:33 PM EST on December 25, 2014 (GMT -0500)
Town of Lumberland | Change Station
CLOSE
Current Station
Personal Weather Station
Location: Glen Spey, NY
Elevation: 1326 ft
Nearby Weather Stations

Elev 1326 ft 41.46 °N, 74.81 °W | Updated 199 days ago

Clear
Clear
37 °F
Feels Like 29 °F
N
14
Wind Variable Wind from WNW
Gusts 20 mph

Today
High -- | Low -- °F
--% Chance of Precip.
Yesterday
High -- | Low -- °F
Precip. -- in
7:23 AM 4:34 PM
Waxing Crescent, 20% visible
Pressure 29.98 in
Visibility 10.0 miles
Clouds Overcast 4400 ft
Windchill 29 °F
Dew Point 28 °F
Humidity 66%
Rainfall 0.09 in
Snow Depth Not available.
UV 0.0 out of 12
Pollen .10 out of 12
Air Quality Not available.
Flu Activity Not available.
METAR KMSV 260015Z AUTO 29018G26KT 10SM OVC044 04/M03 A2998 RMK AO1

More Conditions Fewer Conditions

Pressure 29.98 in
Visibility 10.0 miles
Clouds Overcast 4400 ft
Windchill 29 °F
Dew Point 28 °F
Humidity 66%
Rainfall 0.09 in
Snow Depth Not available.
UV 0.0 out of 12
Pollen .10 out of 12
Air Quality Not available.
Flu Activity Not available.
METAR KMSV 260015Z AUTO 29018G26KT 10SM OVC044 04/M03 A2998 RMK AO1

More Conditions Fewer Conditions

10-Day Weather Forecast

Almanac

Astronomy

Dec. 25, 2014 Rise Set
Actual Time
Civil Twilight
Nautical Twilight
Astronomical Twilight
Moon
Length of Visible Light
Length of Day
Tomorrow will be .
, % of the Moon is Illuminated

Today's Extremes

State Highs State Lows

Community

WunderPhotos

Upload Photos

1,780,479 photos uploaded!

WunderBlogs® & News

Nearby

Air Quality

  Air Quality AQ Index Pollutant
Not available.

Snow Depth

Station Depth Elevation

Earthquake Activity

City Distance Mag. Time & Date
Minimum magnitude displayed is 2.5.

Coastal Water Temperatures

Place Temperature

Nearby Weather Stations